Kezdőlap
METAR-TAF:

METAR-TAF

Repülőterek :

Jackson Municipal Airport

Jackson, Minnesota, Amerikai Egyesült Államok

földrajzi szélesség: 43-39N, földrajzi hosszúság: 094-59W, magasság: 441 m

Jelenlegi meteorológiai megfigyelések

A jelentés 29 perccel ezelõtt készült, 02:55 UTC
Dél-délnyugati szél 4 kt
Hőmérséklet -5°C
Páratartalom 93%
Légköri nyomás 1018 hPa
Látótávolság: 6.4 km
Szórványos felhőzet 1100 lábon
Szakadozott felhőzet 2300 lábon
Borult 2900 lábon
enyhe havazás

METAR: KMJQ 280255Z AUTO 21004KT 4SM -SN SCT011 BKN023 OVC029 M05/M06 A3006 RMK AO2

Idő: 21:24 (03:24 UTC)


TAF: hiányzik

Meteorológiai megfigyelések és előrejelzések több, mint 4000 repülőtéren (METAR és TAF jelentéseket).

A térképen piros és sárga pontok jelzik az elérhető meteorológiai állomásokat.

Mozgassa az egeret a pont fölött, hogy megjelenjen az állomás neve.

Azután kattintson az időjárási megfigyelések és előrejelzések megtekintéséhez.

A térkép megváltoztatása: kattintson a fekete keresztel jelölt zöld gombra ráközelítéshez, a vonallal jelölt zöld gombra távolításhoz, vagy a zöld nyilakra a szomszédos térképek eléréséhez.


METAR-TAF: